sensor_id;sensor_type;location;lat;lon;timestamp;pressure;altitude;pressure_sealevel;temperature;humidity
22572;BME280;11452;53.368;14.658;2024-02-16T00:01:42;101060.00;;;12.53;100.00
22572;BME280;11452;53.368;14.658;2024-02-16T00:06:48;101062.59;;;12.55;100.00
22572;BME280;11452;53.368;14.658;2024-02-16T00:11:54;101065.66;;;12.56;100.00
22572;BME280;11452;53.368;14.658;2024-02-16T00:17:00;101067.66;;;12.52;100.00
22572;BME280;11452;53.368;14.658;2024-02-16T00:22:06;101061.30;;;12.46;100.00
22572;BME280;11452;53.368;14.658;2024-02-16T00:27:15;101055.46;;;12.39;100.00
22572;BME280;11452;53.368;14.658;2024-02-16T00:32:22;101062.64;;;12.39;100.00
22572;BME280;11452;53.368;14.658;2024-02-16T00:37:29;101060.34;;;12.40;100.00
22572;BME280;11452;53.368;14.658;2024-02-16T00:42:35;101048.94;;;12.43;100.00
22572;BME280;11452;53.368;14.658;2024-02-16T00:47:42;101039.68;;;12.49;100.00
22572;BME280;11452;53.368;14.658;2024-02-16T00:52:49;101042.70;;;12.59;100.00
22572;BME280;11452;53.368;14.658;2024-02-16T00:57:55;101036.64;;;12.62;100.00
22572;BME280;11452;53.368;14.658;2024-02-16T01:03:01;101038.67;;;12.66;100.00
22572;BME280;11452;53.368;14.658;2024-02-16T01:08:07;101036.67;;;12.69;100.00
22572;BME280;11452;53.368;14.658;2024-02-16T01:13:13;101031.88;;;12.67;100.00
22572;BME280;11452;53.368;14.658;2024-02-16T01:18:19;101032.36;;;12.67;100.00
22572;BME280;11452;53.368;14.658;2024-02-16T01:23:25;101015.40;;;12.66;100.00
22572;BME280;11452;53.368;14.658;2024-02-16T01:28:31;101013.67;;;12.65;100.00
22572;BME280;11452;53.368;14.658;2024-02-16T01:33:37;101002.94;;;12.65;100.00
22572;BME280;11452;53.368;14.658;2024-02-16T01:38:44;101007.35;;;12.66;100.00
22572;BME280;11452;53.368;14.658;2024-02-16T01:43:54;101009.95;;;12.68;100.00
22572;BME280;11452;53.368;14.658;2024-02-16T01:49:03;101017.03;;;12.69;100.00
22572;BME280;11452;53.368;14.658;2024-02-16T01:54:09;101020.85;;;12.65;100.00
22572;BME280;11452;53.368;14.658;2024-02-16T01:59:15;101021.42;;;12.63;100.00
22572;BME280;11452;53.368;14.658;2024-02-16T02:04:22;101022.58;;;12.66;100.00
22572;BME280;11452;53.368;14.658;2024-02-16T02:09:28;101017.30;;;12.64;100.00
22572;BME280;11452;53.368;14.658;2024-02-16T02:14:34;101010.22;;;12.56;100.00
22572;BME280;11452;53.368;14.658;2024-02-16T02:19:40;101012.12;;;12.54;100.00
22572;BME280;11452;53.368;14.658;2024-02-16T02:24:46;101009.06;;;12.53;100.00
22572;BME280;11452;53.368;14.658;2024-02-16T02:29:53;101007.23;;;12.54;100.00
22572;BME280;11452;53.368;14.658;2024-02-16T02:34:59;101011.17;;;12.55;100.00
22572;BME280;11452;53.368;14.658;2024-02-16T02:40:07;101007.72;;;12.53;100.00
22572;BME280;11452;53.368;14.658;2024-02-16T02:45:13;100998.98;;;12.49;100.00
22572;BME280;11452;53.368;14.658;2024-02-16T02:50:19;100991.98;;;12.47;100.00
22572;BME280;11452;53.368;14.658;2024-02-16T02:55:25;100991.42;;;12.42;100.00
22572;BME280;11452;53.368;14.658;2024-02-16T03:00:31;100979.03;;;12.32;100.00
22572;BME280;11452;53.368;14.658;2024-02-16T03:05:37;100975.27;;;12.21;100.00
22572;BME280;11452;53.368;14.658;2024-02-16T03:10:43;100968.15;;;12.12;100.00
22572;BME280;11452;53.368;14.658;2024-02-16T03:15:49;100968.54;;;11.91;100.00
22572;BME280;11452;53.368;14.658;2024-02-16T03:20:54;100964.67;;;11.65;100.00
22572;BME280;11452;53.368;14.658;2024-02-16T03:26:00;100971.31;;;11.42;100.00
22572;BME280;11452;53.368;14.658;2024-02-16T03:31:06;100972.59;;;11.19;100.00
22572;BME280;11452;53.368;14.658;2024-02-16T03:36:13;100973.91;;;11.03;100.00
22572;BME280;11452;53.368;14.658;2024-02-16T03:41:21;100969.63;;;10.92;100.00
22572;BME280;11452;53.368;14.658;2024-02-16T03:46:28;100963.27;;;10.78;100.00
22572;BME280;11452;53.368;14.658;2024-02-16T03:51:34;100960.86;;;10.64;100.00
22572;BME280;11452;53.368;14.658;2024-02-16T03:56:41;100956.33;;;10.49;100.00
22572;BME280;11452;53.368;14.658;2024-02-16T04:01:49;100946.73;;;10.45;100.00
22572;BME280;11452;53.368;14.658;2024-02-16T04:06:55;100945.40;;;10.45;100.00
22572;BME280;11452;53.368;14.658;2024-02-16T04:12:02;100947.08;;;10.39;100.00
22572;BME280;11452;53.368;14.658;2024-02-16T04:17:11;100949.91;;;10.36;100.00
22572;BME280;11452;53.368;14.658;2024-02-16T04:22:16;100944.57;;;10.19;100.00
22572;BME280;11452;53.368;14.658;2024-02-16T04:27:22;100945.33;;;10.21;100.00
22572;BME280;11452;53.368;14.658;2024-02-16T04:32:28;100946.41;;;10.08;100.00
22572;BME280;11452;53.368;14.658;2024-02-16T04:37:34;100943.73;;;10.08;100.00
22572;BME280;11452;53.368;14.658;2024-02-16T04:42:41;100940.68;;;10.16;100.00
22572;BME280;11452;53.368;14.658;2024-02-16T04:47:46;100935.62;;;10.20;100.00
22572;BME280;11452;53.368;14.658;2024-02-16T04:52:53;100931.48;;;10.13;100.00
22572;BME280;11452;53.368;14.658;2024-02-16T04:57:58;100926.07;;;10.14;100.00
22572;BME280;11452;53.368;14.658;2024-02-16T05:03:05;100929.29;;;10.12;100.00
22572;BME280;11452;53.368;14.658;2024-02-16T05:08:11;100926.54;;;10.14;100.00
22572;BME280;11452;53.368;14.658;2024-02-16T05:13:17;100915.19;;;10.19;100.00
22572;BME280;11452;53.368;14.658;2024-02-16T05:18:23;100915.32;;;10.24;100.00
22572;BME280;11452;53.368;14.658;2024-02-16T05:23:29;100912.80;;;10.21;100.00
22572;BME280;11452;53.368;14.658;2024-02-16T05:28:35;100898.50;;;10.22;100.00
22572;BME280;11452;53.368;14.658;2024-02-16T05:33:42;100902.82;;;10.16;100.00
22572;BME280;11452;53.368;14.658;2024-02-16T05:38:48;100890.24;;;10.10;100.00
22572;BME280;11452;53.368;14.658;2024-02-16T05:43:54;100901.55;;;10.06;100.00
22572;BME280;11452;53.368;14.658;2024-02-16T05:49:00;100893.88;;;10.00;100.00
22572;BME280;11452;53.368;14.658;2024-02-16T05:54:08;100893.09;;;9.98;100.00
22572;BME280;11452;53.368;14.658;2024-02-16T05:59:15;100898.16;;;9.85;100.00
22572;BME280;11452;53.368;14.658;2024-02-16T06:04:21;100902.03;;;9.80;100.00
22572;BME280;11452;53.368;14.658;2024-02-16T06:09:27;100905.96;;;9.81;100.00
22572;BME280;11452;53.368;14.658;2024-02-16T06:14:34;100905.69;;;9.68;100.00
22572;BME280;11452;53.368;14.658;2024-02-16T06:19:42;100898.70;;;9.66;100.00
22572;BME280;11452;53.368;14.658;2024-02-16T06:24:49;100897.53;;;9.71;100.00
22572;BME280;11452;53.368;14.658;2024-02-16T06:29:55;100890.86;;;9.71;100.00
22572;BME280;11452;53.368;14.658;2024-02-16T06:35:01;100891.11;;;9.76;100.00
22572;BME280;11452;53.368;14.658;2024-02-16T06:40:08;100896.70;;;9.80;100.00
22572;BME280;11452;53.368;14.658;2024-02-16T06:45:16;100900.61;;;9.90;100.00
22572;BME280;11452;53.368;14.658;2024-02-16T06:50:22;100905.50;;;9.99;100.00
22572;BME280;11452;53.368;14.658;2024-02-16T06:55:28;100904.55;;;10.00;100.00
22572;BME280;11452;53.368;14.658;2024-02-16T07:00:34;100908.62;;;10.07;100.00
22572;BME280;11452;53.368;14.658;2024-02-16T07:05:40;100904.94;;;10.10;100.00
22572;BME280;11452;53.368;14.658;2024-02-16T07:10:46;100894.97;;;10.22;100.00
22572;BME280;11452;53.368;14.658;2024-02-16T07:15:52;100887.14;;;10.19;100.00
22572;BME280;11452;53.368;14.658;2024-02-16T07:20:59;100870.93;;;10.22;100.00
22572;BME280;11452;53.368;14.658;2024-02-16T07:26:05;100877.37;;;10.26;100.00
22572;BME280;11452;53.368;14.658;2024-02-16T07:31:12;100872.50;;;10.34;100.00
22572;BME280;11452;53.368;14.658;2024-02-16T07:36:19;100867.75;;;10.48;100.00
22572;BME280;11452;53.368;14.658;2024-02-16T07:41:25;100860.59;;;10.57;100.00
22572;BME280;11452;53.368;14.658;2024-02-16T07:46:32;100859.44;;;10.70;100.00
22572;BME280;11452;53.368;14.658;2024-02-16T07:51:40;100852.77;;;10.86;100.00
22572;BME280;11452;53.368;14.658;2024-02-16T07:56:46;100843.46;;;10.93;100.00
22572;BME280;11452;53.368;14.658;2024-02-16T08:01:53;100839.47;;;11.16;100.00
22572;BME280;11452;53.368;14.658;2024-02-16T08:06:59;100824.94;;;11.35;100.00
22572;BME280;11452;53.368;14.658;2024-02-16T08:12:06;100826.45;;;11.48;100.00
22572;BME280;11452;53.368;14.658;2024-02-16T08:17:12;100830.33;;;11.72;100.00
22572;BME280;11452;53.368;14.658;2024-02-16T08:22:20;100821.55;;;12.00;100.00
22572;BME280;11452;53.368;14.658;2024-02-16T08:27:26;100820.90;;;12.54;100.00
22572;BME280;11452;53.368;14.658;2024-02-16T08:32:31;100814.75;;;13.21;100.00
22572;BME280;11452;53.368;14.658;2024-02-16T08:37:37;100822.89;;;13.54;97.98
22572;BME280;11452;53.368;14.658;2024-02-16T08:42:43;100846.06;;;13.74;95.15
22572;BME280;11452;53.368;14.658;2024-02-16T08:47:49;100837.13;;;13.94;94.27
22572;BME280;11452;53.368;14.658;2024-02-16T08:52:56;100839.54;;;14.24;92.74
22572;BME280;11452;53.368;14.658;2024-02-16T08:58:02;100837.23;;;14.25;91.37
22572;BME280;11452;53.368;14.658;2024-02-16T09:03:08;100833.80;;;14.48;90.20
22572;BME280;11452;53.368;14.658;2024-02-16T09:08:14;100821.21;;;14.61;88.37
22572;BME280;11452;53.368;14.658;2024-02-16T09:13:20;100824.03;;;14.78;87.67
22572;BME280;11452;53.368;14.658;2024-02-16T09:18:27;100811.50;;;14.89;86.68
22572;BME280;11452;53.368;14.658;2024-02-16T09:23:34;100814.77;;;15.00;86.13
22572;BME280;11452;53.368;14.658;2024-02-16T09:28:40;100815.69;;;15.12;85.28
22572;BME280;11452;53.368;14.658;2024-02-16T09:33:46;100817.80;;;15.43;84.76
22572;BME280;11452;53.368;14.658;2024-02-16T09:38:53;100819.05;;;15.69;84.02
22572;BME280;11452;53.368;14.658;2024-02-16T09:43:59;100813.58;;;15.76;81.08
22572;BME280;11452;53.368;14.658;2024-02-16T09:49:05;100827.14;;;15.69;80.92
22572;BME280;11452;53.368;14.658;2024-02-16T09:54:11;100829.11;;;15.78;80.14
22572;BME280;11452;53.368;14.658;2024-02-16T09:59:17;100822.69;;;15.62;78.54
22572;BME280;11452;53.368;14.658;2024-02-16T10:04:24;100818.69;;;15.20;78.89
22572;BME280;11452;53.368;14.658;2024-02-16T10:09:30;100824.58;;;15.07;79.75
22572;BME280;11452;53.368;14.658;2024-02-16T10:14:37;100818.38;;;15.12;80.00
22572;BME280;11452;53.368;14.658;2024-02-16T10:19:44;100818.17;;;15.39;79.02
22572;BME280;11452;53.368;14.658;2024-02-16T10:24:52;100818.47;;;15.52;77.92
22572;BME280;11452;53.368;14.658;2024-02-16T10:29:58;100814.34;;;15.59;77.07
22572;BME280;11452;53.368;14.658;2024-02-16T10:35:05;100822.52;;;15.82;76.48
22572;BME280;11452;53.368;14.658;2024-02-16T10:40:13;100809.77;;;16.41;75.14
22572;BME280;11452;53.368;14.658;2024-02-16T10:45:22;100799.58;;;17.01;74.32
22572;BME280;11452;53.368;14.658;2024-02-16T10:50:28;100788.89;;;17.42;73.49
22572;BME280;11452;53.368;14.658;2024-02-16T10:55:35;100783.38;;;17.70;71.16
22572;BME280;11452;53.368;14.658;2024-02-16T11:00:52;100784.29;;;18.01;69.97
22572;BME280;11452;53.368;14.658;2024-02-16T11:05:58;100776.16;;;18.22;67.84
22572;BME280;11452;53.368;14.658;2024-02-16T11:11:04;100776.95;;;18.33;67.31
22572;BME280;11452;53.368;14.658;2024-02-16T11:16:12;100771.58;;;17.92;66.45
22572;BME280;11452;53.368;14.658;2024-02-16T11:21:18;100756.55;;;17.78;66.75
22572;BME280;11452;53.368;14.658;2024-02-16T11:26:23;100768.72;;;17.78;66.07
22572;BME280;11452;53.368;14.658;2024-02-16T11:31:29;100760.98;;;17.79;66.25
22572;BME280;11452;53.368;14.658;2024-02-16T11:36:35;100755.48;;;17.90;65.28
22572;BME280;11452;53.368;14.658;2024-02-16T11:41:41;100752.37;;;17.80;64.60
22572;BME280;11452;53.368;14.658;2024-02-16T11:46:47;100747.92;;;17.52;65.52
22572;BME280;11452;53.368;14.658;2024-02-16T11:51:53;100743.62;;;17.55;65.70
22572;BME280;11452;53.368;14.658;2024-02-16T11:56:59;100735.25;;;17.32;64.93
22572;BME280;11452;53.368;14.658;2024-02-16T12:02:05;100733.00;;;17.43;65.82
22572;BME280;11452;53.368;14.658;2024-02-16T12:07:13;100729.91;;;17.74;65.30
22572;BME280;11452;53.368;14.658;2024-02-16T12:12:19;100725.20;;;17.96;64.21
22572;BME280;11452;53.368;14.658;2024-02-16T12:17:25;100722.88;;;17.97;63.69
22572;BME280;11452;53.368;14.658;2024-02-16T12:22:31;100729.17;;;18.08;63.12
22572;BME280;11452;53.368;14.658;2024-02-16T12:27:37;100720.05;;;17.78;62.40
22572;BME280;11452;53.368;14.658;2024-02-16T12:32:43;100718.84;;;17.92;63.09
22572;BME280;11452;53.368;14.658;2024-02-16T12:37:49;100726.63;;;18.00;62.72
22572;BME280;11452;53.368;14.658;2024-02-16T12:42:55;100708.78;;;18.19;62.02
22572;BME280;11452;53.368;14.658;2024-02-16T12:48:00;100710.86;;;18.06;61.60
22572;BME280;11452;53.368;14.658;2024-02-16T12:53:07;100693.77;;;17.75;62.30
22572;BME280;11452;53.368;14.658;2024-02-16T12:58:13;100704.53;;;17.59;62.46
22572;BME280;11452;53.368;14.658;2024-02-16T13:03:18;100710.31;;;17.34;62.40
22572;BME280;11452;53.368;14.658;2024-02-16T13:08:24;100704.47;;;17.44;62.93
22572;BME280;11452;53.368;14.658;2024-02-16T13:13:30;100707.35;;;17.37;62.86
22572;BME280;11452;53.368;14.658;2024-02-16T13:18:36;100699.44;;;17.24;62.97
22572;BME280;11452;53.368;14.658;2024-02-16T13:23:42;100702.37;;;16.95;63.24
22572;BME280;11452;53.368;14.658;2024-02-16T13:28:48;100700.94;;;16.85;63.69
22572;BME280;11452;53.368;14.658;2024-02-16T13:33:55;100709.23;;;16.99;63.92
22572;BME280;11452;53.368;14.658;2024-02-16T13:39:01;100710.88;;;17.17;63.79
22572;BME280;11452;53.368;14.658;2024-02-16T13:44:06;100706.56;;;17.25;63.67
22572;BME280;11452;53.368;14.658;2024-02-16T13:49:13;100705.19;;;16.93;63.48
22572;BME280;11452;53.368;14.658;2024-02-16T13:54:19;100701.69;;;16.76;63.87
22572;BME280;11452;53.368;14.658;2024-02-16T13:59:27;100699.64;;;16.63;64.21
22572;BME280;11452;53.368;14.658;2024-02-16T14:04:33;100696.30;;;16.54;64.07
22572;BME280;11452;53.368;14.658;2024-02-16T14:09:40;100694.52;;;16.26;64.31
22572;BME280;11452;53.368;14.658;2024-02-16T14:14:45;100701.23;;;16.15;64.86
22572;BME280;11452;53.368;14.658;2024-02-16T14:19:52;100692.80;;;16.03;65.17
22572;BME280;11452;53.368;14.658;2024-02-16T14:24:58;100704.80;;;15.77;65.73
22572;BME280;11452;53.368;14.658;2024-02-16T14:30:05;100699.72;;;15.61;66.41
22572;BME280;11452;53.368;14.658;2024-02-16T14:35:12;100692.45;;;15.50;66.92
22572;BME280;11452;53.368;14.658;2024-02-16T14:40:18;100692.70;;;15.53;67.27
22572;BME280;11452;53.368;14.658;2024-02-16T14:45:24;100705.59;;;15.61;67.33
22572;BME280;11452;53.368;14.658;2024-02-16T14:50:30;100687.32;;;15.53;67.52
22572;BME280;11452;53.368;14.658;2024-02-16T14:55:37;100672.72;;;15.39;67.91
22572;BME280;11452;53.368;14.658;2024-02-16T15:00:43;100678.69;;;15.31;68.40
22572;BME280;11452;53.368;14.658;2024-02-16T15:05:49;100685.02;;;15.24;68.74
22572;BME280;11452;53.368;14.658;2024-02-16T15:10:55;100688.83;;;15.28;69.04
22572;BME280;11452;53.368;14.658;2024-02-16T15:16:01;100700.98;;;15.33;69.10
22572;BME280;11452;53.368;14.658;2024-02-16T15:21:06;100693.53;;;15.37;69.21
22572;BME280;11452;53.368;14.658;2024-02-16T15:26:13;100686.39;;;15.30;69.41
22572;BME280;11452;53.368;14.658;2024-02-16T15:31:18;100684.91;;;15.26;69.58
22572;BME280;11452;53.368;14.658;2024-02-16T15:36:25;100681.10;;;15.17;69.98
22572;BME280;11452;53.368;14.658;2024-02-16T15:41:30;100670.13;;;14.97;70.40
22572;BME280;11452;53.368;14.658;2024-02-16T15:46:36;100679.33;;;14.76;70.95
22572;BME280;11452;53.368;14.658;2024-02-16T15:51:44;100689.51;;;14.60;71.37
22572;BME280;11452;53.368;14.658;2024-02-16T15:56:49;100700.75;;;14.41;72.02
22572;BME280;11452;53.368;14.658;2024-02-16T16:01:57;100708.67;;;14.24;72.60
22572;BME280;11452;53.368;14.658;2024-02-16T16:07:04;100703.77;;;14.11;73.13
22572;BME280;11452;53.368;14.658;2024-02-16T16:12:10;100697.77;;;13.95;73.83
22572;BME280;11452;53.368;14.658;2024-02-16T16:17:17;100699.55;;;14.01;74.31
22572;BME280;11452;53.368;14.658;2024-02-16T16:22:23;100703.27;;;14.06;74.93
22572;BME280;11452;53.368;14.658;2024-02-16T16:27:29;100696.57;;;14.11;75.33
22572;BME280;11452;53.368;14.658;2024-02-16T16:32:35;100703.72;;;14.18;75.61
22572;BME280;11452;53.368;14.658;2024-02-16T16:37:41;100708.13;;;14.19;75.89
22572;BME280;11452;53.368;14.658;2024-02-16T16:42:47;100714.74;;;14.20;76.09
22572;BME280;11452;53.368;14.658;2024-02-16T16:47:52;100721.36;;;14.22;76.42
22572;BME280;11452;53.368;14.658;2024-02-16T16:53:00;100725.13;;;14.19;76.76
22572;BME280;11452;53.368;14.658;2024-02-16T16:58:05;100730.49;;;14.19;77.10
22572;BME280;11452;53.368;14.658;2024-02-16T17:03:11;100733.98;;;14.14;77.45
22572;BME280;11452;53.368;14.658;2024-02-16T17:08:18;100735.55;;;14.11;77.65
22572;BME280;11452;53.368;14.658;2024-02-16T17:13:24;100738.48;;;14.08;78.59
22572;BME280;11452;53.368;14.658;2024-02-16T17:18:30;100741.21;;;14.01;79.16
22572;BME280;11452;53.368;14.658;2024-02-16T17:23:37;100746.73;;;13.93;79.38
22572;BME280;11452;53.368;14.658;2024-02-16T17:28:43;100746.22;;;13.88;79.73
22572;BME280;11452;53.368;14.658;2024-02-16T17:33:50;100745.73;;;13.88;80.19
22572;BME280;11452;53.368;14.658;2024-02-16T17:38:56;100753.20;;;13.90;80.46
22572;BME280;11452;53.368;14.658;2024-02-16T17:44:02;100748.70;;;13.91;80.64
22572;BME280;11452;53.368;14.658;2024-02-16T17:49:08;100756.69;;;13.98;80.68
22572;BME280;11452;53.368;14.658;2024-02-16T17:54:16;100756.09;;;14.00;80.69
22572;BME280;11452;53.368;14.658;2024-02-16T17:59:22;100761.74;;;14.02;80.67
22572;BME280;11452;53.368;14.658;2024-02-16T18:04:28;100766.84;;;14.00;80.66
22572;BME280;11452;53.368;14.658;2024-02-16T18:09:36;100764.64;;;13.99;80.78
22572;BME280;11452;53.368;14.658;2024-02-16T18:14:42;100774.91;;;14.00;80.83
22572;BME280;11452;53.368;14.658;2024-02-16T18:19:48;100774.80;;;14.01;81.01
22572;BME280;11452;53.368;14.658;2024-02-16T18:24:54;100780.66;;;14.01;81.56
22572;BME280;11452;53.368;14.658;2024-02-16T18:29:59;100777.77;;;13.91;83.01
22572;BME280;11452;53.368;14.658;2024-02-16T18:35:06;100786.72;;;13.72;84.44
22572;BME280;11452;53.368;14.658;2024-02-16T18:40:13;100792.20;;;13.50;86.14
22572;BME280;11452;53.368;14.658;2024-02-16T18:45:23;100796.08;;;13.39;87.63
22572;BME280;11452;53.368;14.658;2024-02-16T18:50:28;100793.26;;;13.28;88.62
22572;BME280;11452;53.368;14.658;2024-02-16T18:55:34;100798.97;;;13.16;90.29
22572;BME280;11452;53.368;14.658;2024-02-16T19:00:40;100800.48;;;13.06;92.03
22572;BME280;11452;53.368;14.658;2024-02-16T19:05:47;100810.08;;;13.03;92.66
22572;BME280;11452;53.368;14.658;2024-02-16T19:10:52;100821.61;;;12.98;94.03
22572;BME280;11452;53.368;14.658;2024-02-16T19:15:59;100827.94;;;12.97;95.31
22572;BME280;11452;53.368;14.658;2024-02-16T19:21:07;100827.36;;;12.92;96.57
22572;BME280;11452;53.368;14.658;2024-02-16T19:26:12;100826.13;;;12.83;97.81
22572;BME280;11452;53.368;14.658;2024-02-16T19:31:18;100823.82;;;12.84;98.76
22572;BME280;11452;53.368;14.658;2024-02-16T19:36:25;100839.44;;;12.85;99.74
22572;BME280;11452;53.368;14.658;2024-02-16T19:41:31;100830.84;;;12.80;100.00
22572;BME280;11452;53.368;14.658;2024-02-16T19:46:37;100841.67;;;12.78;100.00
22572;BME280;11452;53.368;14.658;2024-02-16T19:51:42;100840.42;;;12.77;100.00
22572;BME280;11452;53.368;14.658;2024-02-16T19:56:49;100856.03;;;12.77;100.00
22572;BME280;11452;53.368;14.658;2024-02-16T20:01:54;100850.84;;;12.81;100.00
22572;BME280;11452;53.368;14.658;2024-02-16T20:07:02;100854.48;;;12.88;100.00
22572;BME280;11452;53.368;14.658;2024-02-16T20:12:09;100861.38;;;12.92;100.00
22572;BME280;11452;53.368;14.658;2024-02-16T20:17:15;100869.05;;;12.98;100.00
22572;BME280;11452;53.368;14.658;2024-02-16T20:22:21;100871.22;;;13.05;100.00
22572;BME280;11452;53.368;14.658;2024-02-16T20:27:27;100878.50;;;13.10;100.00
22572;BME280;11452;53.368;14.658;2024-02-16T20:32:33;100885.11;;;13.12;100.00
22572;BME280;11452;53.368;14.658;2024-02-16T20:37:38;100897.03;;;13.15;100.00
22572;BME280;11452;53.368;14.658;2024-02-16T20:42:44;100899.48;;;13.18;100.00
22572;BME280;11452;53.368;14.658;2024-02-16T20:47:51;100905.05;;;13.22;100.00
22572;BME280;11452;53.368;14.658;2024-02-16T20:52:57;100905.43;;;13.23;100.00
22572;BME280;11452;53.368;14.658;2024-02-16T20:58:03;100911.85;;;13.21;100.00
22572;BME280;11452;53.368;14.658;2024-02-16T21:03:09;100918.75;;;13.17;100.00
22572;BME280;11452;53.368;14.658;2024-02-16T21:08:15;100919.84;;;13.15;100.00
22572;BME280;11452;53.368;14.658;2024-02-16T21:13:21;100927.48;;;13.14;100.00
22572;BME280;11452;53.368;14.658;2024-02-16T21:18:27;100933.70;;;13.14;100.00
22572;BME280;11452;53.368;14.658;2024-02-16T21:23:34;100935.53;;;13.14;100.00
22572;BME280;11452;53.368;14.658;2024-02-16T21:28:39;100933.41;;;13.12;100.00
22572;BME280;11452;53.368;14.658;2024-02-16T21:33:45;100943.77;;;13.11;100.00
22572;BME280;11452;53.368;14.658;2024-02-16T21:38:53;100949.23;;;13.09;100.00
22572;BME280;11452;53.368;14.658;2024-02-16T21:44:03;100963.13;;;13.09;100.00
22572;BME280;11452;53.368;14.658;2024-02-16T21:49:09;100961.88;;;13.07;100.00
22572;BME280;11452;53.368;14.658;2024-02-16T21:54:15;100973.00;;;13.08;100.00
22572;BME280;11452;53.368;14.658;2024-02-16T21:59:22;100974.91;;;13.06;100.00
22572;BME280;11452;53.368;14.658;2024-02-16T22:04:28;100978.55;;;13.05;100.00
22572;BME280;11452;53.368;14.658;2024-02-16T22:09:34;100988.52;;;13.03;100.00
22572;BME280;11452;53.368;14.658;2024-02-16T22:14:40;100995.70;;;13.03;100.00
22572;BME280;11452;53.368;14.658;2024-02-16T22:19:46;101005.19;;;13.01;100.00
22572;BME280;11452;53.368;14.658;2024-02-16T22:24:51;101003.75;;;13.03;100.00
22572;BME280;11452;53.368;14.658;2024-02-16T22:29:57;101018.12;;;13.02;100.00
22572;BME280;11452;53.368;14.658;2024-02-16T22:35:05;101023.70;;;12.99;100.00
22572;BME280;11452;53.368;14.658;2024-02-16T22:40:11;101030.60;;;12.96;100.00
22572;BME280;11452;53.368;14.658;2024-02-16T22:45:17;101042.97;;;12.98;100.00
22572;BME280;11452;53.368;14.658;2024-02-16T22:50:23;101043.70;;;13.00;100.00
22572;BME280;11452;53.368;14.658;2024-02-16T22:55:29;101046.13;;;12.98;100.00
22572;BME280;11452;53.368;14.658;2024-02-16T23:00:35;101049.67;;;12.98;100.00
22572;BME280;11452;53.368;14.658;2024-02-16T23:05:48;101065.19;;;12.93;100.00
22572;BME280;11452;53.368;14.658;2024-02-16T23:10:55;101067.48;;;12.92;100.00
22572;BME280;11452;53.368;14.658;2024-02-16T23:16:02;101086.44;;;12.89;100.00
22572;BME280;11452;53.368;14.658;2024-02-16T23:21:07;101080.39;;;12.86;100.00
22572;BME280;11452;53.368;14.658;2024-02-16T23:26:13;101081.91;;;12.75;100.00
22572;BME280;11452;53.368;14.658;2024-02-16T23:31:19;101076.22;;;12.66;100.00
22572;BME280;11452;53.368;14.658;2024-02-16T23:36:26;101101.30;;;12.65;100.00
22572;BME280;11452;53.368;14.658;2024-02-16T23:41:32;101099.48;;;12.65;100.00
22572;BME280;11452;53.368;14.658;2024-02-16T23:46:37;101092.69;;;12.60;100.00
22572;BME280;11452;53.368;14.658;2024-02-16T23:51:43;101110.77;;;12.56;100.00
22572;BME280;11452;53.368;14.658;2024-02-16T23:56:49;101099.88;;;12.59;100.00
